Van Horn's Hourly Summary for Monday, October 19, 2020
Hour Temp
(f)
RH
(%)
Solar Rad.
(MJ/m2)
Rainfall
(in)
Wind
(mph)
Battery
(volts)
10/19/2020 12:00 AM 53 20 0 0 9.01 0
10/19/2020 1:00 AM 56 20 0 0 4.96 0
10/19/2020 2:00 AM 54 21 0 0 5.33 0
10/19/2020 3:00 AM 50 27 0 0 4.63 0
10/19/2020 4:00 AM 53 24 0 0 6.46 0
10/19/2020 5:00 AM 48 26 0 0 6.76 0
10/19/2020 6:00 AM 48 29 0 0 6.24 0
10/19/2020 7:00 AM 52 27 0 0 3.6 0
10/19/2020 8:00 AM 46 35 0.05 0 4.6 0
10/19/2020 9:00 AM 58 24 0.25 0 2.58 0
10/19/2020 10:00 AM 68 17 0.42 0 0.41 0
10/19/2020 11:00 AM 78 12 0.57 0 1.26 0
10/19/2020 12:00 PM 85 9 0.65 0 1.61 0
10/19/2020 1:00 PM 87 8 0.71 0 8.58 0
10/19/2020 2:00 PM 88 5 0.69 0 6.96 0
10/19/2020 3:00 PM 89 5 0.6 0 8.17 0
10/19/2020 4:00 PM 90 7 0.46 0 5.5 0
10/19/2020 5:00 PM 89 5 0.25 0 5.98 0
10/19/2020 6:00 PM 87 6 0.05 0 3.52 0
10/19/2020 7:00 PM 77 9 0 0 0.05 0
10/19/2020 8:00 PM 69 14 0 0 2.95 0
10/19/2020 9:00 PM 62 17 0 0 1.49 0
10/19/2020 10:00 PM 56 19 0 0 1.37 0
10/19/2020 11:00 PM 57 15 0 0 6.64 0
Data Summary 66 16 4.70 0.00 4.53 0.00